sensor_id;sensor_type;location;lat;lon;timestamp;temperature;humidity
69823;SHT31;57119;52.516;13.508;2023-08-24T00:02:02;15.97;99.99
69823;SHT31;57119;52.516;13.508;2023-08-24T00:04:28;15.90;99.99
69823;SHT31;57119;52.516;13.508;2023-08-24T00:06:54;15.94;99.99
69823;SHT31;57119;52.516;13.508;2023-08-24T00:09:20;15.94;99.99
69823;SHT31;57119;52.516;13.508;2023-08-24T00:11:45;16.00;99.99
69823;SHT31;57119;52.516;13.508;2023-08-24T00:14:11;16.01;99.99
69823;SHT31;57119;52.516;13.508;2023-08-24T00:16:37;15.92;99.99
69823;SHT31;57119;52.516;13.508;2023-08-24T00:19:02;15.91;99.99
69823;SHT31;57119;52.516;13.508;2023-08-24T00:21:27;15.94;99.99
69823;SHT31;57119;52.516;13.508;2023-08-24T00:23:54;15.87;99.99
69823;SHT31;57119;52.516;13.508;2023-08-24T00:26:19;15.87;99.99
69823;SHT31;57119;52.516;13.508;2023-08-24T00:28:45;15.83;99.99
69823;SHT31;57119;52.516;13.508;2023-08-24T00:31:11;15.83;99.99
69823;SHT31;57119;52.516;13.508;2023-08-24T00:33:36;15.80;99.99
69823;SHT31;57119;52.516;13.508;2023-08-24T00:36:02;15.77;99.99
69823;SHT31;57119;52.516;13.508;2023-08-24T00:38:28;15.73;99.99
69823;SHT31;57119;52.516;13.508;2023-08-24T00:40:55;15.75;99.99
69823;SHT31;57119;52.516;13.508;2023-08-24T00:43:21;15.67;99.99
69823;SHT31;57119;52.516;13.508;2023-08-24T00:45:53;15.60;99.99
69823;SHT31;57119;52.516;13.508;2023-08-24T00:48:20;15.57;99.99
69823;SHT31;57119;52.516;13.508;2023-08-24T00:50:52;15.64;99.99
69823;SHT31;57119;52.516;13.508;2023-08-24T00:53:17;15.63;99.99
69823;SHT31;57119;52.516;13.508;2023-08-24T00:55:44;15.51;99.99
69823;SHT31;57119;52.516;13.508;2023-08-24T00:58:09;15.50;99.99
69823;SHT31;57119;52.516;13.508;2023-08-24T01:00:35;15.53;99.99
69823;SHT31;57119;52.516;13.508;2023-08-24T01:03:00;15.56;99.99
69823;SHT31;57119;52.516;13.508;2023-08-24T01:05:26;15.57;99.99
69823;SHT31;57119;52.516;13.508;2023-08-24T01:07:51;15.57;99.99
69823;SHT31;57119;52.516;13.508;2023-08-24T01:10:16;15.57;99.99
69823;SHT31;57119;52.516;13.508;2023-08-24T01:13:02;15.58;99.99
69823;SHT31;57119;52.516;13.508;2023-08-24T01:15:48;15.56;99.99
69823;SHT31;57119;52.516;13.508;2023-08-24T01:18:17;15.56;99.99
69823;SHT31;57119;52.516;13.508;2023-08-24T01:20:46;15.49;99.99
69823;SHT31;57119;52.516;13.508;2023-08-24T01:23:36;15.54;99.99
69823;SHT31;57119;52.516;13.508;2023-08-24T01:26:17;15.60;99.99
69823;SHT31;57119;52.516;13.508;2023-08-24T01:28:44;15.67;99.99
69823;SHT31;57119;52.516;13.508;2023-08-24T01:31:09;15.56;99.99
69823;SHT31;57119;52.516;13.508;2023-08-24T01:33:35;15.63;99.99
69823;SHT31;57119;52.516;13.508;2023-08-24T01:36:00;15.71;99.99
69823;SHT31;57119;52.516;13.508;2023-08-24T01:38:26;15.68;99.99
69823;SHT31;57119;52.516;13.508;2023-08-24T01:41:24;15.73;99.99
69823;SHT31;57119;52.516;13.508;2023-08-24T01:43:53;15.78;99.99
69823;SHT31;57119;52.516;13.508;2023-08-24T01:46:21;15.81;99.99
69823;SHT31;57119;52.516;13.508;2023-08-24T01:48:47;15.85;99.99
69823;SHT31;57119;52.516;13.508;2023-08-24T01:51:13;15.91;99.99
69823;SHT31;57119;52.516;13.508;2023-08-24T01:53:40;15.94;99.99
69823;SHT31;57119;52.516;13.508;2023-08-24T01:56:14;16.02;99.99
69823;SHT31;57119;52.516;13.508;2023-08-24T01:58:40;16.09;99.99
69823;SHT31;57119;52.516;13.508;2023-08-24T02:01:07;16.11;99.99
69823;SHT31;57119;52.516;13.508;2023-08-24T02:03:32;16.19;99.99
69823;SHT31;57119;52.516;13.508;2023-08-24T02:05:58;16.21;99.99
69823;SHT31;57119;52.516;13.508;2023-08-24T02:08:23;16.23;99.99
69823;SHT31;57119;52.516;13.508;2023-08-24T02:10:48;16.15;99.99
69823;SHT31;57119;52.516;13.508;2023-08-24T02:13:14;16.16;99.99
69823;SHT31;57119;52.516;13.508;2023-08-24T02:15:39;16.21;99.99
69823;SHT31;57119;52.516;13.508;2023-08-24T02:18:06;16.16;99.99
69823;SHT31;57119;52.516;13.508;2023-08-24T02:20:35;16.19;99.99
69823;SHT31;57119;52.516;13.508;2023-08-24T02:23:00;16.25;99.99
69823;SHT31;57119;52.516;13.508;2023-08-24T02:25:26;16.32;99.99
69823;SHT31;57119;52.516;13.508;2023-08-24T02:27:51;16.39;99.99
69823;SHT31;57119;52.516;13.508;2023-08-24T02:30:16;16.42;99.99
69823;SHT31;57119;52.516;13.508;2023-08-24T02:32:42;16.50;99.99
69823;SHT31;57119;52.516;13.508;2023-08-24T02:35:07;16.53;99.99
69823;SHT31;57119;52.516;13.508;2023-08-24T02:37:33;16.57;99.99
69823;SHT31;57119;52.516;13.508;2023-08-24T02:39:58;16.60;99.99
69823;SHT31;57119;52.516;13.508;2023-08-24T02:42:24;16.71;99.99
69823;SHT31;57119;52.516;13.508;2023-08-24T02:44:49;16.76;99.99
69823;SHT31;57119;52.516;13.508;2023-08-24T02:47:15;16.79;99.99
69823;SHT31;57119;52.516;13.508;2023-08-24T02:49:40;16.77;99.99
69823;SHT31;57119;52.516;13.508;2023-08-24T02:52:05;16.84;99.99
69823;SHT31;57119;52.516;13.508;2023-08-24T02:54:31;16.79;99.99
69823;SHT31;57119;52.516;13.508;2023-08-24T02:56:56;16.81;99.99
69823;SHT31;57119;52.516;13.508;2023-08-24T02:59:22;16.85;99.99
69823;SHT31;57119;52.516;13.508;2023-08-24T03:01:47;16.88;99.99
69823;SHT31;57119;52.516;13.508;2023-08-24T03:04:13;16.90;99.99
69823;SHT31;57119;52.516;13.508;2023-08-24T03:06:38;16.91;99.99
69823;SHT31;57119;52.516;13.508;2023-08-24T03:09:04;16.94;99.99
69823;SHT31;57119;52.516;13.508;2023-08-24T03:11:29;16.92;99.99
69823;SHT31;57119;52.516;13.508;2023-08-24T03:13:54;16.91;99.99
69823;SHT31;57119;52.516;13.508;2023-08-24T03:16:20;16.95;99.99
69823;SHT31;57119;52.516;13.508;2023-08-24T03:18:45;16.97;99.99
69823;SHT31;57119;52.516;13.508;2023-08-24T03:21:11;16.94;99.99
69823;SHT31;57119;52.516;13.508;2023-08-24T03:23:36;16.95;99.99
69823;SHT31;57119;52.516;13.508;2023-08-24T03:26:01;16.97;99.99
69823;SHT31;57119;52.516;13.508;2023-08-24T03:28:28;16.98;99.99
69823;SHT31;57119;52.516;13.508;2023-08-24T03:30:53;17.06;99.99
69823;SHT31;57119;52.516;13.508;2023-08-24T03:33:20;17.06;99.99
69823;SHT31;57119;52.516;13.508;2023-08-24T03:35:46;17.14;99.99
69823;SHT31;57119;52.516;13.508;2023-08-24T03:38:12;17.32;99.99
69823;SHT31;57119;52.516;13.508;2023-08-24T03:40:37;17.32;99.99
69823;SHT31;57119;52.516;13.508;2023-08-24T03:43:03;17.35;99.99
69823;SHT31;57119;52.516;13.508;2023-08-24T03:45:28;17.38;99.99
69823;SHT31;57119;52.516;13.508;2023-08-24T03:47:54;17.43;99.99
69823;SHT31;57119;52.516;13.508;2023-08-24T03:50:19;17.46;99.99
69823;SHT31;57119;52.516;13.508;2023-08-24T03:52:44;17.45;99.99
69823;SHT31;57119;52.516;13.508;2023-08-24T03:55:10;17.45;99.99
69823;SHT31;57119;52.516;13.508;2023-08-24T03:57:35;17.50;98.99
69823;SHT31;57119;52.516;13.508;2023-08-24T04:00:03;17.52;99.37
69823;SHT31;57119;52.516;13.508;2023-08-24T04:02:31;17.53;98.81
69823;SHT31;57119;52.516;13.508;2023-08-24T04:04:56;17.52;99.99
69823;SHT31;57119;52.516;13.508;2023-08-24T04:07:22;17.49;99.78
69823;SHT31;57119;52.516;13.508;2023-08-24T04:09:47;17.63;98.22
69823;SHT31;57119;52.516;13.508;2023-08-24T04:12:12;17.69;97.61
69823;SHT31;57119;52.516;13.508;2023-08-24T04:14:38;17.80;97.08
69823;SHT31;57119;52.516;13.508;2023-08-24T04:17:03;17.80;97.98
69823;SHT31;57119;52.516;13.508;2023-08-24T04:19:28;17.91;95.93
69823;SHT31;57119;52.516;13.508;2023-08-24T04:21:54;17.94;95.86
69823;SHT31;57119;52.516;13.508;2023-08-24T04:24:19;17.94;97.31
69823;SHT31;57119;52.516;13.508;2023-08-24T04:26:44;17.93;96.32
69823;SHT31;57119;52.516;13.508;2023-08-24T04:29:10;17.90;96.48
69823;SHT31;57119;52.516;13.508;2023-08-24T04:31:36;17.90;97.02
69823;SHT31;57119;52.516;13.508;2023-08-24T04:34:02;17.94;96.45
69823;SHT31;57119;52.516;13.508;2023-08-24T04:36:29;17.90;96.68
69823;SHT31;57119;52.516;13.508;2023-08-24T04:38:54;17.94;95.99
69823;SHT31;57119;52.516;13.508;2023-08-24T04:41:19;18.03;95.11
69823;SHT31;57119;52.516;13.508;2023-08-24T04:43:45;18.06;95.03
69823;SHT31;57119;52.516;13.508;2023-08-24T04:46:10;18.04;94.99
69823;SHT31;57119;52.516;13.508;2023-08-24T04:48:36;18.10;94.60
69823;SHT31;57119;52.516;13.508;2023-08-24T04:51:01;18.13;94.46
69823;SHT31;57119;52.516;13.508;2023-08-24T04:53:27;18.14;94.76
69823;SHT31;57119;52.516;13.508;2023-08-24T04:55:52;18.15;94.39
69823;SHT31;57119;52.516;13.508;2023-08-24T04:58:18;18.17;94.41
69823;SHT31;57119;52.516;13.508;2023-08-24T05:00:44;18.11;94.54
69823;SHT31;57119;52.516;13.508;2023-08-24T05:03:10;18.17;94.15
69823;SHT31;57119;52.516;13.508;2023-08-24T05:05:37;18.20;94.41
69823;SHT31;57119;52.516;13.508;2023-08-24T05:08:04;18.23;94.00
69823;SHT31;57119;52.516;13.508;2023-08-24T05:10:32;18.28;94.20
69823;SHT31;57119;52.516;13.508;2023-08-24T05:12:58;18.43;93.26
69823;SHT31;57119;52.516;13.508;2023-08-24T05:15:23;18.47;93.54
69823;SHT31;57119;52.516;13.508;2023-08-24T05:17:49;18.65;92.93
69823;SHT31;57119;52.516;13.508;2023-08-24T05:20:15;18.69;92.66
69823;SHT31;57119;52.516;13.508;2023-08-24T05:22:40;18.82;91.88
69823;SHT31;57119;52.516;13.508;2023-08-24T05:25:06;18.85;92.17
69823;SHT31;57119;52.516;13.508;2023-08-24T05:27:32;18.96;91.59
69823;SHT31;57119;52.516;13.508;2023-08-24T05:29:57;19.07;91.76
69823;SHT31;57119;52.516;13.508;2023-08-24T05:32:23;19.12;91.13
69823;SHT31;57119;52.516;13.508;2023-08-24T05:34:49;19.16;91.18
69823;SHT31;57119;52.516;13.508;2023-08-24T05:37:14;19.33;91.44
69823;SHT31;57119;52.516;13.508;2023-08-24T05:39:40;19.46;91.15
69823;SHT31;57119;52.516;13.508;2023-08-24T05:42:05;19.51;90.96
69823;SHT31;57119;52.516;13.508;2023-08-24T05:44:31;19.67;90.66
69823;SHT31;57119;52.516;13.508;2023-08-24T05:46:56;19.85;89.71
69823;SHT31;57119;52.516;13.508;2023-08-24T05:49:21;19.85;89.53
69823;SHT31;57119;52.516;13.508;2023-08-24T05:51:50;19.89;88.92
69823;SHT31;57119;52.516;13.508;2023-08-24T05:54:15;19.99;88.57
69823;SHT31;57119;52.516;13.508;2023-08-24T05:56:44;20.05;88.46
69823;SHT31;57119;52.516;13.508;2023-08-24T05:59:09;20.04;88.07
69823;SHT31;57119;52.516;13.508;2023-08-24T06:01:34;20.17;87.46
69823;SHT31;57119;52.516;13.508;2023-08-24T06:04:06;20.30;87.67
69823;SHT31;57119;52.516;13.508;2023-08-24T06:06:31;20.39;87.88
69823;SHT31;57119;52.516;13.508;2023-08-24T06:08:58;20.39;87.30
69823;SHT31;57119;52.516;13.508;2023-08-24T06:11:23;20.37;87.37
69823;SHT31;57119;52.516;13.508;2023-08-24T06:13:49;20.47;87.09
69823;SHT31;57119;52.516;13.508;2023-08-24T06:16:15;20.65;86.89
69823;SHT31;57119;52.516;13.508;2023-08-24T06:18:42;20.83;86.80
69823;SHT31;57119;52.516;13.508;2023-08-24T06:21:08;20.91;86.14
69823;SHT31;57119;52.516;13.508;2023-08-24T06:23:33;20.99;85.72
69823;SHT31;57119;52.516;13.508;2023-08-24T06:25:59;21.18;85.36
69823;SHT31;57119;52.516;13.508;2023-08-24T06:28:24;21.36;85.05
69823;SHT31;57119;52.516;13.508;2023-08-24T06:30:49;21.29;84.86
69823;SHT31;57119;52.516;13.508;2023-08-24T06:33:17;21.67;84.44
69823;SHT31;57119;52.516;13.508;2023-08-24T06:35:42;22.04;83.81
69823;SHT31;57119;52.516;13.508;2023-08-24T06:38:07;22.24;82.20
69823;SHT31;57119;52.516;13.508;2023-08-24T06:40:33;22.42;82.00
69823;SHT31;57119;52.516;13.508;2023-08-24T06:42:58;22.90;81.25
69823;SHT31;57119;52.516;13.508;2023-08-24T06:45:24;22.95;79.81
69823;SHT31;57119;52.516;13.508;2023-08-24T06:47:50;23.06;79.15
69823;SHT31;57119;52.516;13.508;2023-08-24T06:50:16;23.43;78.79
69823;SHT31;57119;52.516;13.508;2023-08-24T06:52:42;23.55;77.71
69823;SHT31;57119;52.516;13.508;2023-08-24T06:55:10;24.09;77.82
69823;SHT31;57119;52.516;13.508;2023-08-24T06:57:37;23.73;77.14
69823;SHT31;57119;52.516;13.508;2023-08-24T07:00:03;24.19;76.47
69823;SHT31;57119;52.516;13.508;2023-08-24T07:02:33;24.43;75.63
69823;SHT31;57119;52.516;13.508;2023-08-24T07:04:58;24.37;75.81
69823;SHT31;57119;52.516;13.508;2023-08-24T07:07:24;24.65;75.52
69823;SHT31;57119;52.516;13.508;2023-08-24T07:09:50;24.43;75.26
69823;SHT31;57119;52.516;13.508;2023-08-24T07:12:16;25.14;75.08
69823;SHT31;57119;52.516;13.508;2023-08-24T07:14:41;25.51;73.44
69823;SHT31;57119;52.516;13.508;2023-08-24T07:17:06;25.06;73.67
69823;SHT31;57119;52.516;13.508;2023-08-24T07:19:32;25.60;72.51
69823;SHT31;57119;52.516;13.508;2023-08-24T07:21:57;26.02;71.22
69823;SHT31;57119;52.516;13.508;2023-08-24T07:24:23;25.93;70.90
69823;SHT31;57119;52.516;13.508;2023-08-24T07:26:52;26.12;70.51
69823;SHT31;57119;52.516;13.508;2023-08-24T07:29:18;26.46;69.90
69823;SHT31;57119;52.516;13.508;2023-08-24T07:31:43;26.82;69.76
69823;SHT31;57119;52.516;13.508;2023-08-24T07:34:08;26.59;69.33
69823;SHT31;57119;52.516;13.508;2023-08-24T07:36:34;26.80;68.55
69823;SHT31;57119;52.516;13.508;2023-08-24T07:38:59;27.44;68.11
69823;SHT31;57119;52.516;13.508;2023-08-24T07:41:25;28.09;66.78
69823;SHT31;57119;52.516;13.508;2023-08-24T07:43:50;27.17;67.17
69823;SHT31;57119;52.516;13.508;2023-08-24T07:46:16;27.96;66.54
69823;SHT31;57119;52.516;13.508;2023-08-24T07:48:41;27.72;66.31
69823;SHT31;57119;52.516;13.508;2023-08-24T07:51:07;28.65;64.61
69823;SHT31;57119;52.516;13.508;2023-08-24T07:53:32;28.89;64.26
69823;SHT31;57119;52.516;13.508;2023-08-24T07:55:58;29.03;62.96
69823;SHT31;57119;52.516;13.508;2023-08-24T07:58:25;28.02;64.67
69823;SHT31;57119;52.516;13.508;2023-08-24T08:00:50;28.07;64.93
69823;SHT31;57119;52.516;13.508;2023-08-24T08:03:18;28.40;64.19
69823;SHT31;57119;52.516;13.508;2023-08-24T08:05:43;28.85;63.23
69823;SHT31;57119;52.516;13.508;2023-08-24T08:08:08;28.71;63.07
69823;SHT31;57119;52.516;13.508;2023-08-24T08:10:34;29.05;63.14
69823;SHT31;57119;52.516;13.508;2023-08-24T08:12:59;28.68;62.95
69823;SHT31;57119;52.516;13.508;2023-08-24T08:15:25;29.71;62.46
69823;SHT31;57119;52.516;13.508;2023-08-24T08:17:50;29.15;62.03
69823;SHT31;57119;52.516;13.508;2023-08-24T08:20:16;29.43;62.25
69823;SHT31;57119;52.516;13.508;2023-08-24T08:22:41;29.42;61.85
69823;SHT31;57119;52.516;13.508;2023-08-24T08:25:07;28.64;63.29
69823;SHT31;57119;52.516;13.508;2023-08-24T08:27:32;28.44;63.41
69823;SHT31;57119;52.516;13.508;2023-08-24T08:29:58;28.54;64.04
69823;SHT31;57119;52.516;13.508;2023-08-24T08:32:24;27.76;64.23
69823;SHT31;57119;52.516;13.508;2023-08-24T08:34:55;28.09;64.04
69823;SHT31;57119;52.516;13.508;2023-08-24T08:37:26;27.82;65.00
69823;SHT31;57119;52.516;13.508;2023-08-24T08:39:51;26.96;65.97
69823;SHT31;57119;52.516;13.508;2023-08-24T08:42:20;27.07;66.88
69823;SHT31;57119;52.516;13.508;2023-08-24T08:44:46;26.91;66.41
69823;SHT31;57119;52.516;13.508;2023-08-24T08:47:12;26.56;68.04
69823;SHT31;57119;52.516;13.508;2023-08-24T08:49:39;26.60;67.35
69823;SHT31;57119;52.516;13.508;2023-08-24T08:52:05;26.21;67.99
69823;SHT31;57119;52.516;13.508;2023-08-24T08:54:31;26.25;68.12
69823;SHT31;57119;52.516;13.508;2023-08-24T08:56:58;25.80;68.93
69823;SHT31;57119;52.516;13.508;2023-08-24T08:59:25;25.60;67.96
69823;SHT31;57119;52.516;13.508;2023-08-24T09:01:54;25.93;68.20
69823;SHT31;57119;52.516;13.508;2023-08-24T09:04:21;25.94;68.68
69823;SHT31;57119;52.516;13.508;2023-08-24T09:06:47;26.05;68.16
69823;SHT31;57119;52.516;13.508;2023-08-24T09:09:14;25.62;68.17
69823;SHT31;57119;52.516;13.508;2023-08-24T09:11:40;25.33;68.27
69823;SHT31;57119;52.516;13.508;2023-08-24T09:14:07;25.56;68.41
69823;SHT31;57119;52.516;13.508;2023-08-24T09:16:32;26.33;67.50
69823;SHT31;57119;52.516;13.508;2023-08-24T09:18:58;28.09;64.17
69823;SHT31;57119;52.516;13.508;2023-08-24T09:21:23;29.16;61.48
69823;SHT31;57119;52.516;13.508;2023-08-24T09:23:54;29.95;60.35
69823;SHT31;57119;52.516;13.508;2023-08-24T09:26:31;28.30;63.57
69823;SHT31;57119;52.516;13.508;2023-08-24T09:28:57;28.43;63.11
69823;SHT31;57119;52.516;13.508;2023-08-24T09:31:43;27.68;63.77
69823;SHT31;57119;52.516;13.508;2023-08-24T09:34:11;28.45;63.70
69823;SHT31;57119;52.516;13.508;2023-08-24T09:36:37;29.53;61.41
69823;SHT31;57119;52.516;13.508;2023-08-24T09:39:04;29.53;60.59
69823;SHT31;57119;52.516;13.508;2023-08-24T09:41:48;29.03;62.07
69823;SHT31;57119;52.516;13.508;2023-08-24T09:44:13;30.33;60.10
69823;SHT31;57119;52.516;13.508;2023-08-24T09:46:39;31.76;57.16
69823;SHT31;57119;52.516;13.508;2023-08-24T09:49:06;31.89;57.16
69823;SHT31;57119;52.516;13.508;2023-08-24T09:51:36;32.45;56.34
69823;SHT31;57119;52.516;13.508;2023-08-24T09:54:07;33.73;54.90
69823;SHT31;57119;52.516;13.508;2023-08-24T09:56:37;33.54;54.58
69823;SHT31;57119;52.516;13.508;2023-08-24T09:59:23;34.83;52.53
69823;SHT31;57119;52.516;13.508;2023-08-24T10:01:52;34.48;53.01
69823;SHT31;57119;52.516;13.508;2023-08-24T10:04:24;35.14;52.64
69823;SHT31;57119;52.516;13.508;2023-08-24T10:06:55;33.64;53.89
69823;SHT31;57119;52.516;13.508;2023-08-24T10:09:27;34.52;52.66
69823;SHT31;57119;52.516;13.508;2023-08-24T10:12:02;34.28;52.56
69823;SHT31;57119;52.516;13.508;2023-08-24T10:14:34;34.41;51.74
69823;SHT31;57119;52.516;13.508;2023-08-24T10:17:04;33.76;51.73
69823;SHT31;57119;52.516;13.508;2023-08-24T10:19:31;35.74;49.80
69823;SHT31;57119;52.516;13.508;2023-08-24T10:21:57;35.08;49.89
69823;SHT31;57119;52.516;13.508;2023-08-24T10:24:26;35.79;51.37
69823;SHT31;57119;52.516;13.508;2023-08-24T10:26:52;35.72;49.99
69823;SHT31;57119;52.516;13.508;2023-08-24T10:29:20;36.07;49.82
69823;SHT31;57119;52.516;13.508;2023-08-24T10:31:46;34.63;51.24
69823;SHT31;57119;52.516;13.508;2023-08-24T10:34:13;34.35;51.62
69823;SHT31;57119;52.516;13.508;2023-08-24T10:36:41;35.31;51.67
69823;SHT31;57119;52.516;13.508;2023-08-24T10:39:07;35.82;49.91
69823;SHT31;57119;52.516;13.508;2023-08-24T10:41:52;36.60;48.99
69823;SHT31;57119;52.516;13.508;2023-08-24T10:44:37;34.51;50.90
69823;SHT31;57119;52.516;13.508;2023-08-24T10:47:18;33.93;51.97
69823;SHT31;57119;52.516;13.508;2023-08-24T10:52:35;36.29;49.77
69823;SHT31;57119;52.516;13.508;2023-08-24T10:55:03;35.90;49.75
69823;SHT31;57119;52.516;13.508;2023-08-24T10:57:38;34.38;50.83
69823;SHT31;57119;52.516;13.508;2023-08-24T11:00:09;35.85;50.65
69823;SHT31;57119;52.516;13.508;2023-08-24T11:02:51;36.13;50.12
69823;SHT31;57119;52.516;13.508;2023-08-24T11:07:54;34.29;52.77
69823;SHT31;57119;52.516;13.508;2023-08-24T11:10:22;36.13;49.83
69823;SHT31;57119;52.516;13.508;2023-08-24T11:20:51;37.88;49.02
69823;SHT31;57119;52.516;13.508;2023-08-24T11:23:17;39.29;47.18
69823;SHT31;57119;52.516;13.508;2023-08-24T11:25:44;39.74;45.53
69823;SHT31;57119;52.516;13.508;2023-08-24T11:28:10;38.92;45.85
69823;SHT31;57119;52.516;13.508;2023-08-24T11:30:35;35.82;49.12
69823;SHT31;57119;52.516;13.508;2023-08-24T11:33:02;34.63;51.52
69823;SHT31;57119;52.516;13.508;2023-08-24T11:35:28;33.57;52.38
69823;SHT31;57119;52.516;13.508;2023-08-24T11:37:57;35.75;49.87
69823;SHT31;57119;52.516;13.508;2023-08-24T11:40:22;37.74;48.30
69823;SHT31;57119;52.516;13.508;2023-08-24T11:42:55;38.15;49.04
69823;SHT31;57119;52.516;13.508;2023-08-24T11:45:21;38.95;46.39
69823;SHT31;57119;52.516;13.508;2023-08-24T11:47:48;38.03;47.94
69823;SHT31;57119;52.516;13.508;2023-08-24T11:50:14;36.07;49.12
69823;SHT31;57119;52.516;13.508;2023-08-24T11:52:48;37.80;47.48
69823;SHT31;57119;52.516;13.508;2023-08-24T11:55:13;37.74;48.57
69823;SHT31;57119;52.516;13.508;2023-08-24T11:57:39;37.96;48.25
69823;SHT31;57119;52.516;13.508;2023-08-24T12:00:05;38.15;48.94
69823;SHT31;57119;52.516;13.508;2023-08-24T12:02:32;37.70;46.75
69823;SHT31;57119;52.516;13.508;2023-08-24T12:05:07;38.54;46.19
69823;SHT31;57119;52.516;13.508;2023-08-24T12:07:33;37.87;46.55
69823;SHT31;57119;52.516;13.508;2023-08-24T12:10:02;36.98;47.89
69823;SHT31;57119;52.516;13.508;2023-08-24T12:12:28;37.09;47.34
69823;SHT31;57119;52.516;13.508;2023-08-24T12:14:55;37.67;47.33
69823;SHT31;57119;52.516;13.508;2023-08-24T12:17:20;38.01;47.36
69823;SHT31;57119;52.516;13.508;2023-08-24T12:19:58;38.80;48.24
69823;SHT31;57119;52.516;13.508;2023-08-24T12:22:25;38.78;46.64
69823;SHT31;57119;52.516;13.508;2023-08-24T12:24:54;38.28;46.83
69823;SHT31;57119;52.516;13.508;2023-08-24T12:27:22;37.96;46.31
69823;SHT31;57119;52.516;13.508;2023-08-24T12:29:48;38.69;46.58
69823;SHT31;57119;52.516;13.508;2023-08-24T12:32:13;38.21;48.27
69823;SHT31;57119;52.516;13.508;2023-08-24T12:34:41;38.36;47.01
69823;SHT31;57119;52.516;13.508;2023-08-24T12:37:08;38.15;47.02
69823;SHT31;57119;52.516;13.508;2023-08-24T12:39:37;38.25;47.49
69823;SHT31;57119;52.516;13.508;2023-08-24T12:42:03;38.15;48.47
69823;SHT31;57119;52.516;13.508;2023-08-24T12:44:29;38.21;48.10
69823;SHT31;57119;52.516;13.508;2023-08-24T12:46:54;35.47;50.97
69823;SHT31;57119;52.516;13.508;2023-08-24T12:49:19;36.58;49.58
69823;SHT31;57119;52.516;13.508;2023-08-24T12:51:45;37.55;48.65
69823;SHT31;57119;52.516;13.508;2023-08-24T12:54:11;37.60;47.52
69823;SHT31;57119;52.516;13.508;2023-08-24T12:56:36;38.63;47.65
69823;SHT31;57119;52.516;13.508;2023-08-24T12:59:01;36.61;48.84
69823;SHT31;57119;52.516;13.508;2023-08-24T13:01:27;37.74;48.48
69823;SHT31;57119;52.516;13.508;2023-08-24T13:03:52;39.92;45.35
69823;SHT31;57119;52.516;13.508;2023-08-24T13:06:18;38.99;46.60
69823;SHT31;57119;52.516;13.508;2023-08-24T13:08:43;37.38;47.40
69823;SHT31;57119;52.516;13.508;2023-08-24T13:11:09;35.57;49.51
69823;SHT31;57119;52.516;13.508;2023-08-24T13:13:36;36.46;49.72
69823;SHT31;57119;52.516;13.508;2023-08-24T13:16:02;36.09;49.56
69823;SHT31;57119;52.516;13.508;2023-08-24T13:18:30;35.31;50.65
69823;SHT31;57119;52.516;13.508;2023-08-24T13:20:56;35.93;49.59
69823;SHT31;57119;52.516;13.508;2023-08-24T13:23:21;37.28;48.46
69823;SHT31;57119;52.516;13.508;2023-08-24T13:25:47;37.96;47.93
69823;SHT31;57119;52.516;13.508;2023-08-24T13:28:12;38.06;47.85
69823;SHT31;57119;52.516;13.508;2023-08-24T13:30:37;37.07;48.57
69823;SHT31;57119;52.516;13.508;2023-08-24T13:33:06;35.93;50.10
69823;SHT31;57119;52.516;13.508;2023-08-24T13:35:32;35.33;50.16
69823;SHT31;57119;52.516;13.508;2023-08-24T13:37:57;35.52;50.99
69823;SHT31;57119;52.516;13.508;2023-08-24T13:40:23;36.37;51.22
69823;SHT31;57119;52.516;13.508;2023-08-24T13:42:48;36.80;50.22
69823;SHT31;57119;52.516;13.508;2023-08-24T13:45:13;36.81;49.14
69823;SHT31;57119;52.516;13.508;2023-08-24T13:47:39;34.90;51.80
69823;SHT31;57119;52.516;13.508;2023-08-24T13:50:05;36.17;51.38
69823;SHT31;57119;52.516;13.508;2023-08-24T13:52:30;36.25;50.25
69823;SHT31;57119;52.516;13.508;2023-08-24T13:54:55;36.70;49.59
69823;SHT31;57119;52.516;13.508;2023-08-24T13:57:21;36.22;50.03
69823;SHT31;57119;52.516;13.508;2023-08-24T13:59:46;37.22;48.94
69823;SHT31;57119;52.516;13.508;2023-08-24T14:02:11;37.90;48.53
69823;SHT31;57119;52.516;13.508;2023-08-24T14:04:38;38.69;48.75
69823;SHT31;57119;52.516;13.508;2023-08-24T14:07:03;38.45;48.12
69823;SHT31;57119;52.516;13.508;2023-08-24T14:09:28;37.19;48.62
69823;SHT31;57119;52.516;13.508;2023-08-24T14:11:54;37.80;48.02
69823;SHT31;57119;52.516;13.508;2023-08-24T14:14:19;37.87;48.42
69823;SHT31;57119;52.516;13.508;2023-08-24T14:16:45;35.41;50.96
69823;SHT31;57119;52.516;13.508;2023-08-24T14:19:11;35.90;50.10
69823;SHT31;57119;52.516;13.508;2023-08-24T14:21:36;35.54;50.71
69823;SHT31;57119;52.516;13.508;2023-08-24T14:24:02;34.08;52.27
69823;SHT31;57119;52.516;13.508;2023-08-24T14:26:28;34.79;53.45
69823;SHT31;57119;52.516;13.508;2023-08-24T14:28:56;36.17;51.01
69823;SHT31;57119;52.516;13.508;2023-08-24T14:31:27;36.47;49.54
69823;SHT31;57119;52.516;13.508;2023-08-24T14:33:52;37.22;49.34
69823;SHT31;57119;52.516;13.508;2023-08-24T14:36:18;36.43;49.45
69823;SHT31;57119;52.516;13.508;2023-08-24T14:38:45;35.44;50.57
69823;SHT31;57119;52.516;13.508;2023-08-24T14:41:12;36.98;48.44
69823;SHT31;57119;52.516;13.508;2023-08-24T14:43:38;35.81;49.56
69823;SHT31;57119;52.516;13.508;2023-08-24T14:46:04;37.23;48.35
69823;SHT31;57119;52.516;13.508;2023-08-24T14:48:29;37.72;49.15
69823;SHT31;57119;52.516;13.508;2023-08-24T14:50:55;37.40;47.65
69823;SHT31;57119;52.516;13.508;2023-08-24T14:53:22;37.23;48.13
69823;SHT31;57119;52.516;13.508;2023-08-24T14:55:48;35.82;49.63
69823;SHT31;57119;52.516;13.508;2023-08-24T14:58:13;35.78;49.98
69823;SHT31;57119;52.516;13.508;2023-08-24T15:00:38;35.72;49.71
69823;SHT31;57119;52.516;13.508;2023-08-24T15:03:04;36.53;49.71
69823;SHT31;57119;52.516;13.508;2023-08-24T15:05:29;37.47;48.82
69823;SHT31;57119;52.516;13.508;2023-08-24T15:07:54;36.41;49.27
69823;SHT31;57119;52.516;13.508;2023-08-24T15:10:20;36.17;49.57
69823;SHT31;57119;52.516;13.508;2023-08-24T15:12:46;37.38;48.31
69823;SHT31;57119;52.516;13.508;2023-08-24T15:15:14;36.44;49.70
69823;SHT31;57119;52.516;13.508;2023-08-24T15:17:43;34.79;52.17
69823;SHT31;57119;52.516;13.508;2023-08-24T15:20:10;34.38;51.82
69823;SHT31;57119;52.516;13.508;2023-08-24T15:22:36;34.69;52.04
69823;SHT31;57119;52.516;13.508;2023-08-24T15:25:02;34.97;50.88
69823;SHT31;57119;52.516;13.508;2023-08-24T15:27:28;34.70;50.65